createdAt,value
2023-02-15T00:00:12.198Z,102652.91
2023-02-15T00:02:40.656Z,102659.09
2023-02-15T00:05:09.703Z,102656.56
2023-02-15T00:07:37.624Z,102655.63
2023-02-15T00:10:06.722Z,102654.66
2023-02-15T00:12:35.038Z,102654.03
2023-02-15T00:15:04.993Z,102650.50
2023-02-15T00:17:32.888Z,102660.03
2023-02-15T00:20:00.810Z,102654.91
2023-02-15T00:22:30.794Z,102644.56
2023-02-15T00:24:58.883Z,102640.31
2023-02-15T00:27:26.864Z,102633.50
2023-02-15T00:29:54.772Z,102623.78
2023-02-15T00:32:24.414Z,102628.97
2023-02-15T00:34:52.409Z,102628.06
2023-02-15T00:37:20.414Z,102619.69
2023-02-15T00:39:49.130Z,102618.91
2023-02-15T00:42:18.769Z,102616.44
2023-02-15T00:44:47.013Z,102621.69
2023-02-15T00:47:14.947Z,102621.69
2023-02-15T00:49:44.249Z,102620.06
2023-02-15T00:52:12.268Z,102626.16
2023-02-15T00:54:40.925Z,102618.41
2023-02-15T00:57:08.838Z,102621.03
2023-02-15T00:59:36.793Z,102625.44
2023-02-15T01:02:04.996Z,102620.91
2023-02-15T01:04:32.983Z,102622.56
2023-02-15T01:07:02.883Z,102614.63
2023-02-15T01:09:31.184Z,102617.59
2023-02-15T01:11:59.134Z,102619.28
2023-02-15T01:14:28.222Z,102614.97
2023-02-15T01:16:56.208Z,102612.41
2023-02-15T01:19:24.095Z,102602.16
2023-02-15T01:21:52.084Z,102603.22
2023-02-15T01:24:21.525Z,102601.56
2023-02-15T01:26:49.716Z,102596.41
2023-02-15T01:29:17.747Z,102602.34
2023-02-15T01:31:45.761Z,102589.22
2023-02-15T01:34:16.003Z,102583.22
2023-02-15T01:36:43.884Z,102584.22
2023-02-15T01:39:13.222Z,102590.22
2023-02-15T01:41:42.576Z,102573.84
2023-02-15T01:44:43.462Z,102577.41
2023-02-15T01:47:17.130Z,102570.63
2023-02-15T01:49:47.662Z,102561.97
2023-02-15T01:52:19.639Z,102556.84
2023-02-15T01:54:49.248Z,102561.19
2023-02-15T01:57:24.477Z,102553.38
2023-02-15T01:59:58.558Z,102548.31
2023-02-15T02:02:28.730Z,102552.69
2023-02-15T02:05:03.739Z,102556.13
2023-02-15T02:07:36.891Z,102551.69
2023-02-15T02:10:06.038Z,102547.47
2023-02-15T02:12:40.565Z,102546.69
2023-02-15T02:15:11.088Z,102532.78
2023-02-15T02:17:52.164Z,102530.16
2023-02-15T02:20:32.401Z,102544.97
2023-02-15T02:23:29.421Z,102530.19
2023-02-15T02:26:44.475Z,102524.09
2023-02-15T02:29:51.552Z,102534.59
2023-02-15T02:32:48.898Z,102526.84
2023-02-15T02:35:28.773Z,102532.91
2023-02-15T02:38:05.990Z,102524.28
2023-02-15T02:40:45.076Z,102525.03
2023-02-15T02:43:20.467Z,102522.56
2023-02-15T02:45:55.801Z,102520.00
2023-02-15T02:48:26.956Z,102512.16
2023-02-15T02:50:56.368Z,102512.06
2023-02-15T02:53:24.550Z,102500.03
2023-02-15T02:55:57.422Z,102507.06
2023-02-15T02:58:33.718Z,102498.38
2023-02-15T03:01:06.988Z,102494.06
2023-02-15T03:03:40.116Z,102501.91
2023-02-15T03:06:13.360Z,102495.00
2023-02-15T03:08:46.251Z,102494.06
2023-02-15T03:11:17.804Z,102494.91
2023-02-15T03:13:48.138Z,102484.59
2023-02-15T03:16:28.515Z,102496.72
2023-02-15T03:18:59.277Z,102499.41
2023-02-15T03:21:34.489Z,102489.88
2023-02-15T03:24:09.582Z,102490.75
2023-02-15T03:26:40.565Z,102486.50
2023-02-15T03:29:11.300Z,102492.59
2023-02-15T03:31:42.865Z,102486.50
2023-02-15T03:34:13.410Z,102491.69
2023-02-15T03:36:49.055Z,102486.47
2023-02-15T03:39:23.167Z,102477.84
2023-02-15T03:41:58.700Z,102483.97
2023-02-15T03:44:30.859Z,102477.97
2023-02-15T03:47:06.872Z,102474.56
2023-02-15T03:49:42.890Z,102476.28
2023-02-15T03:52:15.759Z,102471.97
2023-02-15T03:54:45.724Z,102477.16
2023-02-15T03:57:35.356Z,102477.13
2023-02-15T04:00:23.336Z,102472.84
2023-02-15T04:03:21.197Z,102467.72
2023-02-15T04:05:49.206Z,102469.44
2023-02-15T04:08:18.740Z,102468.59
2023-02-15T04:10:55.941Z,102462.59
2023-02-15T04:13:31.862Z,102460.00
2023-02-15T04:16:06.083Z,102462.59
2023-02-15T04:18:54.545Z,102463.44
2023-02-15T04:21:44.815Z,102452.19
2023-02-15T04:24:32.833Z,102447.03
2023-02-15T04:27:01.315Z,102446.22
2023-02-15T04:29:30.255Z,102451.41
2023-02-15T04:32:00.089Z,102450.53
2023-02-15T04:34:28.562Z,102441.94
2023-02-15T04:36:56.527Z,102442.78
2023-02-15T04:39:25.978Z,102441.94
2023-02-15T04:41:53.891Z,102443.66
2023-02-15T04:44:21.854Z,102447.97
2023-02-15T04:46:49.825Z,102446.25
2023-02-15T04:49:17.921Z,102435.03
2023-02-15T04:51:45.824Z,102435.94
2023-02-15T04:54:13.746Z,102428.16
2023-02-15T04:56:43.301Z,102421.28
2023-02-15T04:59:12.217Z,102418.69
2023-02-15T05:01:40.228Z,102411.78
2023-02-15T05:04:08.159Z,102407.47
2023-02-15T05:06:36.415Z,102405.75
2023-02-15T05:09:04.603Z,102405.75
2023-02-15T05:11:32.498Z,102403.19
2023-02-15T05:14:01.756Z,102402.28
2023-02-15T05:16:29.727Z,102397.13
2023-02-15T05:18:57.677Z,102399.72
2023-02-15T05:21:25.708Z,102397.13
2023-02-15T05:23:53.567Z,102398.88
2023-02-15T05:26:41.532Z,102388.53
2023-02-15T05:29:11.638Z,102390.25
2023-02-15T05:31:40.268Z,102387.69
2023-02-15T05:34:08.340Z,102386.81
2023-02-15T05:36:36.345Z,102386.78
2023-02-15T05:39:04.967Z,102391.13
2023-02-15T05:41:32.908Z,102388.50
2023-02-15T05:44:00.803Z,102386.81
2023-02-15T05:46:30.184Z,102390.22
2023-02-15T05:48:58.115Z,102386.75
2023-02-15T05:51:26.044Z,102382.50
2023-02-15T05:53:53.933Z,102379.00
2023-02-15T05:56:21.836Z,102379.00
2023-02-15T05:58:49.759Z,102378.16
2023-02-15T06:01:19.477Z,102379.03
2023-02-15T06:03:48.831Z,102387.66
2023-02-15T06:06:17.057Z,102383.34
2023-02-15T06:08:45.421Z,102384.22
2023-02-15T06:11:13.517Z,102383.38
2023-02-15T06:13:41.436Z,102385.09
2023-02-15T06:16:09.474Z,102387.66
2023-02-15T06:18:37.516Z,102381.66
2023-02-15T06:21:06.817Z,102383.38
2023-02-15T06:23:34.775Z,102381.63
2023-02-15T06:26:02.854Z,102384.25
2023-02-15T06:28:30.917Z,102382.53
2023-02-15T06:30:58.993Z,102379.91
2023-02-15T06:33:27.006Z,102371.31
2023-02-15T06:35:55.011Z,102374.78
2023-02-15T06:38:24.549Z,102371.31
2023-02-15T06:40:52.473Z,102371.31
2023-02-15T06:43:20.466Z,102367.00
2023-02-15T06:45:48.425Z,102371.31
2023-02-15T06:48:16.394Z,102367.03
2023-02-15T06:50:44.314Z,102376.47
2023-02-15T06:53:12.308Z,102369.59
2023-02-15T06:55:41.627Z,102367.88
2023-02-15T06:58:09.514Z,102367.00
2023-02-15T07:00:40.481Z,102370.44
2023-02-15T07:03:08.869Z,102374.75
2023-02-15T07:05:36.847Z,102367.03
2023-02-15T07:08:05.106Z,102368.72
2023-02-15T07:10:33.014Z,102366.16
2023-02-15T07:13:01.484Z,102364.44
2023-02-15T07:15:29.383Z,102353.22
2023-02-15T07:17:58.742Z,102355.78
2023-02-15T07:20:26.745Z,102355.81
2023-02-15T07:22:54.684Z,102356.66
2023-02-15T07:25:22.686Z,102349.78
2023-02-15T07:27:50.579Z,102350.63
2023-02-15T07:30:19.910Z,102348.94
2023-02-15T07:33:06.048Z,102344.63
2023-02-15T07:35:33.985Z,102342.88
2023-02-15T07:38:02.310Z,102341.16
2023-02-15T07:40:32.489Z,102336.00
2023-02-15T07:43:02.423Z,102330.81
2023-02-15T07:45:32.705Z,102332.50
2023-02-15T07:48:02.490Z,102327.34
2023-02-15T07:50:30.461Z,102328.19
2023-02-15T07:52:59.085Z,102323.00
2023-02-15T07:55:27.113Z,102320.41
2023-02-15T07:57:55.829Z,102312.66
2023-02-15T08:00:25.782Z,102313.50
2023-02-15T08:03:10.949Z,102308.28
2023-02-15T08:05:39.307Z,102308.34
2023-02-15T08:08:07.697Z,102312.63
2023-02-15T08:10:53.449Z,102315.16
2023-02-15T08:13:21.381Z,102315.94
2023-02-15T08:15:52.659Z,102313.25
2023-02-15T08:18:21.920Z,102319.44
2023-02-15T08:20:51.863Z,102314.16
2023-02-15T08:23:21.693Z,102314.13
2023-02-15T08:25:49.580Z,102311.56
2023-02-15T08:28:17.522Z,102314.06
2023-02-15T08:30:45.378Z,102314.09
2023-02-15T08:33:13.371Z,102310.59
2023-02-15T08:35:42.870Z,102303.56
2023-02-15T08:38:10.854Z,102305.28
2023-02-15T08:40:39.184Z,102304.53
2023-02-15T08:43:08.024Z,102304.41
2023-02-15T08:45:35.931Z,102300.06
2023-02-15T08:48:03.968Z,102293.34
2023-02-15T08:50:31.829Z,102289.09
2023-02-15T08:53:01.536Z,102284.75
2023-02-15T08:55:29.467Z,102275.94
2023-02-15T08:57:57.484Z,102272.44
2023-02-15T09:00:30.343Z,102272.47
2023-02-15T09:02:58.311Z,102274.22
2023-02-15T09:05:26.303Z,102272.47
2023-02-15T09:07:55.603Z,102264.78
2023-02-15T09:10:24.908Z,102263.81
2023-02-15T09:12:52.873Z,102262.06
2023-02-15T09:15:20.830Z,102262.00
2023-02-15T09:17:48.784Z,102268.13
2023-02-15T09:20:16.850Z,102271.47
2023-02-15T09:22:44.783Z,102268.03
2023-02-15T09:25:14.454Z,102268.84
2023-02-15T09:27:44.248Z,102261.09
2023-02-15T09:30:13.654Z,102261.72
2023-02-15T09:32:41.621Z,102262.69
2023-02-15T09:35:09.594Z,102273.00
2023-02-15T09:37:40.776Z,102265.13
2023-02-15T09:40:09.176Z,102258.97
2023-02-15T09:42:58.181Z,102263.19
2023-02-15T09:45:36.945Z,102267.59
2023-02-15T09:48:40.311Z,102258.78
2023-02-15T09:51:40.777Z,102265.81
2023-02-15T09:54:21.807Z,102261.34
2023-02-15T09:56:53.902Z,102256.16
2023-02-15T09:59:37.032Z,102252.19
2023-02-15T10:02:21.665Z,102258.03
2023-02-15T10:05:02.361Z,102252.66
2023-02-15T10:07:46.628Z,102252.28
2023-02-15T10:10:26.416Z,102246.19
2023-02-15T10:13:04.931Z,102249.66
2023-02-15T10:15:53.009Z,102251.19
2023-02-15T10:18:49.431Z,102255.25
2023-02-15T10:21:26.862Z,102253.78
2023-02-15T10:24:14.347Z,102248.97
2023-02-15T10:26:46.343Z,102232.56
2023-02-15T10:29:29.901Z,102233.91
2023-02-15T10:32:08.182Z,102226.56
2023-02-15T10:34:40.642Z,102231.84
2023-02-15T10:37:56.199Z,102224.94
2023-02-15T10:40:34.763Z,102227.06
2023-02-15T10:43:31.242Z,102224.09
2023-02-15T10:46:13.007Z,102217.34
2023-02-15T10:48:56.681Z,102221.91
2023-02-15T10:51:35.285Z,102212.31
2023-02-15T10:54:16.225Z,102209.50
2023-02-15T10:56:54.138Z,102203.50
2023-02-15T10:59:44.851Z,102202.97
2023-02-15T11:02:20.863Z,102203.34
2023-02-15T11:05:00.762Z,102195.16
2023-02-15T11:07:35.153Z,102195.06
2023-02-15T11:10:18.165Z,102196.91
2023-02-15T11:12:48.924Z,102197.59
2023-02-15T11:15:32.593Z,102190.81
2023-02-15T11:18:05.925Z,102185.31
2023-02-15T11:20:39.134Z,102185.16
2023-02-15T11:23:17.260Z,102183.56
2023-02-15T11:25:47.956Z,102177.19
2023-02-15T11:28:21.693Z,102178.44
2023-02-15T11:30:53.217Z,102169.84
2023-02-15T11:33:27.147Z,102170.63
2023-02-15T11:36:01.614Z,102168.28
2023-02-15T11:38:31.829Z,102159.91
2023-02-15T11:41:04.730Z,102157.09
2023-02-15T11:43:38.996Z,102146.91
2023-02-15T11:46:07.638Z,102146.03
2023-02-15T11:48:35.694Z,102142.66
2023-02-15T11:51:13.702Z,102138.81
2023-02-15T11:53:41.808Z,102138.97
2023-02-15T11:56:16.387Z,102138.25
2023-02-15T11:58:46.621Z,102141.34
2023-02-15T12:01:41.879Z,102138.22
2023-02-15T12:04:32.776Z,102139.50
2023-02-15T12:07:27.274Z,102134.97
2023-02-15T12:10:07.945Z,102134.13
2023-02-15T12:12:37.373Z,102141.38
2023-02-15T12:15:08.597Z,102131.50
2023-02-15T12:17:41.455Z,102129.06
2023-02-15T12:20:26.260Z,102134.16
2023-02-15T12:22:56.480Z,102131.56
2023-02-15T12:25:31.307Z,102123.66
2023-02-15T12:27:59.989Z,102118.91
2023-02-15T12:30:34.418Z,102118.16
2023-02-15T12:33:07.704Z,102114.06
2023-02-15T12:38:36.791Z,102111.34
2023-02-15T12:41:07.504Z,102111.22
2023-02-15T12:43:39.634Z,102103.88
2023-02-15T12:46:23.921Z,102096.59
2023-02-15T12:49:08.633Z,102099.00
2023-02-15T12:51:50.065Z,102092.34
2023-02-15T12:54:36.708Z,102088.63
2023-02-15T12:57:23.918Z,102087.81
2023-02-15T12:59:53.507Z,102083.97
2023-02-15T13:02:26.481Z,102081.75
2023-02-15T13:04:55.873Z,102080.38
2023-02-15T13:07:25.163Z,102066.41
2023-02-15T13:09:55.153Z,102065.44
2023-02-15T13:12:27.531Z,102061.03
2023-02-15T13:15:00.149Z,102058.47
2023-02-15T13:17:32.068Z,102057.25
2023-02-15T13:20:08.276Z,102061.41
2023-02-15T13:22:45.291Z,102057.63
2023-02-15T13:25:22.094Z,102049.41
2023-02-15T13:27:55.116Z,102044.56
2023-02-15T13:30:27.376Z,102041.22
2023-02-15T13:33:00.417Z,102030.59
2023-02-15T13:35:39.294Z,102019.06
2023-02-15T13:38:31.169Z,102022.78
2023-02-15T13:41:06.053Z,102018.19
2023-02-15T13:43:45.855Z,102023.56
2023-02-15T13:46:26.180Z,102021.19
2023-02-15T13:49:05.293Z,102014.44
2023-02-15T13:51:41.426Z,102012.75
2023-02-15T13:54:50.709Z,102015.69
2023-02-15T13:57:37.724Z,102006.88
2023-02-15T14:00:21.117Z,102000.38
2023-02-15T14:03:07.809Z,102002.75
2023-02-15T14:05:52.117Z,102002.91
2023-02-15T14:08:28.975Z,102010.03
2023-02-15T14:11:04.846Z,102014.97
2023-02-15T14:14:08.352Z,102019.06
2023-02-15T14:17:04.286Z,102019.84
2023-02-15T14:19:39.796Z,102027.44
2023-02-15T14:22:17.042Z,102019.06
2023-02-15T14:24:54.652Z,102016.75
2023-02-15T14:27:29.685Z,102014.06
2023-02-15T14:30:02.302Z,102010.22
2023-02-15T14:32:36.392Z,101999.44
2023-02-15T14:35:05.791Z,101993.63
2023-02-15T14:37:43.918Z,101986.75
2023-02-15T14:40:39.098Z,101995.44
2023-02-15T14:43:14.132Z,101990.25
2023-02-15T14:45:51.836Z,101986.25
2023-02-15T14:48:25.241Z,101993.31
2023-02-15T14:50:53.309Z,101989.59
2023-02-15T14:53:38.374Z,101991.22
2023-02-15T14:56:20.128Z,101987.13
2023-02-15T14:58:59.795Z,101983.78
2023-02-15T15:01:31.711Z,101977.84
2023-02-15T15:04:03.182Z,101980.47
2023-02-15T15:06:33.593Z,101975.56
2023-02-15T15:09:12.362Z,101974.22
2023-02-15T15:11:47.028Z,101975.47
2023-02-15T15:14:39.754Z,101970.66
2023-02-15T15:17:12.455Z,101967.75
2023-02-15T15:20:00.933Z,101956.59
2023-02-15T15:22:30.452Z,101950.34
2023-02-15T15:24:59.516Z,101956.19
2023-02-15T15:27:51.917Z,101954.88
2023-02-15T15:31:04.227Z,101958.53
2023-02-15T15:34:05.857Z,101968.56
2023-02-15T15:37:07.970Z,101966.50
2023-02-15T15:40:23.255Z,101978.88
2023-02-15T15:42:59.690Z,101974.88
2023-02-15T15:45:50.556Z,101967.38
2023-02-15T15:48:31.581Z,101968.66
2023-02-15T15:51:03.577Z,101970.78
2023-02-15T15:53:40.974Z,101971.34
2023-02-15T15:56:13.732Z,101966.06
2023-02-15T15:58:46.855Z,101974.63
2023-02-15T16:01:15.820Z,101970.22
2023-02-15T16:03:51.938Z,101969.22
2023-02-15T16:06:33.883Z,101958.78
2023-02-15T16:11:43.365Z,101947.09
2023-02-15T16:14:15.668Z,101943.53
2023-02-15T16:16:51.487Z,101944.78
2023-02-15T16:19:29.084Z,101943.06
2023-02-15T16:22:01.898Z,101952.34
2023-02-15T16:24:56.865Z,101946.00
2023-02-15T16:27:36.888Z,101935.31
2023-02-15T16:30:29.295Z,101932.28
2023-02-15T16:33:06.722Z,101939.84
2023-02-15T16:35:35.867Z,101929.41
2023-02-15T16:38:06.039Z,101926.66
2023-02-15T16:40:48.960Z,101932.16
2023-02-15T16:43:25.526Z,101932.47
2023-02-15T16:45:57.668Z,101932.28
2023-02-15T16:48:28.663Z,101933.53
2023-02-15T16:50:59.797Z,101935.56
2023-02-15T16:53:30.802Z,101936.50
2023-02-15T16:56:00.878Z,101931.03
2023-02-15T16:58:33.413Z,101931.19
2023-02-15T17:01:03.626Z,101934.31
2023-02-15T17:03:34.742Z,101932.94
2023-02-15T17:06:04.942Z,101939.31
2023-02-15T17:08:35.636Z,101939.56
2023-02-15T17:11:11.611Z,101937.72
2023-02-15T17:13:40.518Z,101944.81
2023-02-15T17:16:30.488Z,101949.28
2023-02-15T17:19:00.257Z,101942.44
2023-02-15T17:21:34.293Z,101942.41
2023-02-15T17:24:05.879Z,101929.03
2023-02-15T17:26:36.142Z,101927.31
2023-02-15T17:29:14.326Z,101929.28
2023-02-15T17:31:42.604Z,101929.88
2023-02-15T17:34:45.501Z,101927.81
2023-02-15T17:37:14.408Z,101928.16
2023-02-15T17:39:42.516Z,101926.03
2023-02-15T17:42:10.522Z,101927.63
2023-02-15T17:44:38.456Z,101927.09
2023-02-15T17:47:06.575Z,101918.28
2023-02-15T17:49:35.308Z,101918.59
2023-02-15T17:52:05.203Z,101923.88
2023-02-15T17:54:50.630Z,101924.34
2023-02-15T17:57:18.616Z,101923.34
2023-02-15T18:00:11.711Z,101928.72
2023-02-15T18:03:00.506Z,101925.44
2023-02-15T18:05:45.889Z,101920.50
2023-02-15T18:08:36.345Z,101931.66
2023-02-15T18:11:22.112Z,101923.50
2023-02-15T18:13:52.704Z,101923.56
2023-02-15T18:16:24.758Z,101919.41
2023-02-15T18:18:56.835Z,101919.53
2023-02-15T18:21:25.636Z,101919.00
2023-02-15T18:23:54.995Z,101916.69
2023-02-15T18:26:26.658Z,101915.72
2023-02-15T18:28:54.690Z,101910.16
2023-02-15T18:31:25.079Z,101909.09
2023-02-15T18:33:55.690Z,101906.34
2023-02-15T18:36:27.938Z,101903.28
2023-02-15T18:38:57.868Z,101904.53
2023-02-15T18:41:26.244Z,101910.59
2023-02-15T18:43:55.378Z,101899.22
2023-02-15T18:46:23.588Z,101908.97
2023-02-15T18:48:51.560Z,101911.25
2023-02-15T18:51:21.830Z,101905.88
2023-02-15T18:53:52.578Z,101902.16
2023-02-15T18:56:23.919Z,101901.09
2023-02-15T18:58:51.904Z,101894.38
2023-02-15T19:01:22.311Z,101896.97
2023-02-15T19:03:52.014Z,101903.44
2023-02-15T19:06:23.021Z,101896.75
2023-02-15T19:08:53.355Z,101891.06
2023-02-15T19:11:25.645Z,101888.78
2023-02-15T19:13:55.087Z,101893.13
2023-02-15T19:16:32.163Z,101886.38
2023-02-15T19:19:03.233Z,101888.09
2023-02-15T19:21:33.256Z,101885.16
2023-02-15T19:24:04.938Z,101887.00
2023-02-15T19:26:45.289Z,101886.38
2023-02-15T19:29:16.164Z,101876.03
2023-02-15T19:31:44.228Z,101867.50
2023-02-15T19:34:17.472Z,101865.72
2023-02-15T19:36:47.257Z,101865.53
2023-02-15T19:39:28.024Z,101862.50
2023-02-15T19:41:57.767Z,101858.81
2023-02-15T19:44:26.121Z,101855.75
2023-02-15T19:46:54.230Z,101855.22
2023-02-15T19:49:22.216Z,101860.56
2023-02-15T19:51:50.300Z,101852.53
2023-02-15T19:54:30.199Z,101850.44
2023-02-15T19:56:59.653Z,101850.28
2023-02-15T19:59:30.079Z,101845.59
2023-02-15T20:01:58.560Z,101836.38
2023-02-15T20:04:27.288Z,101844.19
2023-02-15T20:06:59.620Z,101839.00
2023-02-15T20:09:31.322Z,101837.41
2023-02-15T20:12:00.719Z,101826.25
2023-02-15T20:14:28.811Z,101823.06
2023-02-15T20:16:56.814Z,101824.84
2023-02-15T20:19:24.921Z,101824.94
2023-02-15T20:21:54.812Z,101821.69
2023-02-15T20:24:25.748Z,101813.38
2023-02-15T20:26:53.798Z,101819.94
2023-02-15T20:29:23.318Z,101823.94
2023-02-15T20:31:54.076Z,101811.00
2023-02-15T20:34:23.207Z,101815.31
2023-02-15T20:36:52.485Z,101813.41
2023-02-15T20:39:20.689Z,101815.47
2023-02-15T20:41:51.261Z,101814.66
2023-02-15T20:44:23.898Z,101811.16
2023-02-15T20:46:54.845Z,101814.22
2023-02-15T20:49:23.940Z,101819.94
2023-02-15T20:51:52.685Z,101816.72
2023-02-15T20:54:22.829Z,101822.16
2023-02-15T20:56:51.408Z,101813.63
2023-02-15T20:59:26.677Z,101814.47
2023-02-15T21:01:57.797Z,101815.28
2023-02-15T21:04:32.312Z,101814.28
2023-02-15T21:07:00.865Z,101818.63
2023-02-15T21:09:29.556Z,101822.78
2023-02-15T21:12:02.487Z,101820.31
2023-02-15T21:14:31.860Z,101822.78
2023-02-15T21:17:46.776Z,101825.22
2023-02-15T21:19:48.694Z,101828.28
2023-02-15T21:22:21.485Z,101820.41
2023-02-15T21:24:53.469Z,101814.44
2023-02-15T21:27:22.276Z,101807.88
2023-02-15T21:29:54.375Z,101806.38
2023-02-15T21:32:22.449Z,101804.44
2023-02-15T21:34:50.369Z,101805.88
2023-02-15T21:37:33.990Z,101811.13
2023-02-15T21:40:07.095Z,101813.34
2023-02-15T21:42:52.427Z,101810.91
2023-02-15T21:45:41.672Z,101815.34
2023-02-15T21:48:09.655Z,101813.69
2023-02-15T21:50:55.853Z,101818.97
2023-02-15T21:53:28.967Z,101823.03
2023-02-15T21:55:59.494Z,101818.59
2023-02-15T21:58:29.904Z,101817.69
2023-02-15T22:01:01.648Z,101809.91
2023-02-15T22:03:33.543Z,101812.25
2023-02-15T22:06:03.873Z,101808.97
2023-02-15T22:08:31.937Z,101810.94
2023-02-15T22:10:59.888Z,101808.81
2023-02-15T22:13:32.455Z,101815.31
2023-02-15T22:16:03.130Z,101813.34
2023-02-15T22:18:34.362Z,101812.22
2023-02-15T22:21:04.315Z,101817.22
2023-02-15T22:23:32.504Z,101808.59
2023-02-15T22:26:04.018Z,101806.09
2023-02-15T22:28:34.872Z,101803.94
2023-02-15T22:31:05.355Z,101806.56
2023-02-15T22:33:35.236Z,101802.22
2023-02-15T22:36:03.169Z,101799.56
2023-02-15T22:38:31.109Z,101802.13
2023-02-15T22:41:04.949Z,101801.75
2023-02-15T22:43:38.208Z,101793.44
2023-02-15T22:46:14.372Z,101795.25
2023-02-15T22:48:43.887Z,101802.41
2023-02-15T22:51:13.933Z,101801.88
2023-02-15T22:53:42.188Z,101798.78
2023-02-15T22:56:17.966Z,101790.88
2023-02-15T22:58:48.316Z,101795.59
2023-02-15T23:01:24.580Z,101792.59
2023-02-15T23:03:52.661Z,101784.75
2023-02-15T23:06:20.708Z,101780.50
2023-02-15T23:08:49.423Z,101779.38
2023-02-15T23:11:19.281Z,101783.00
2023-02-15T23:13:49.145Z,101770.94
2023-02-15T23:16:18.462Z,101776.31
2023-02-15T23:18:48.651Z,101778.13
2023-02-15T23:21:21.330Z,101781.41
2023-02-15T23:23:52.077Z,101784.53
2023-02-15T23:26:23.119Z,101779.88
2023-02-15T23:28:52.313Z,101784.06
2023-02-15T23:31:22.468Z,101782.63
2023-02-15T23:33:53.532Z,101790.88
2023-02-15T23:36:31.365Z,101790.78
2023-02-15T23:39:22.491Z,101779.50
2023-02-15T23:41:49.500Z,101780.16
2023-02-15T23:44:19.655Z,101786.09
2023-02-15T23:46:49.565Z,101791.25
2023-02-15T23:49:20.716Z,101788.69
2023-02-15T23:51:50.157Z,101783.34
2023-02-15T23:54:20.450Z,101786.28
2023-02-15T23:56:51.585Z,101789.22
2023-02-15T23:59:22.736Z,101785.59
